Terminal Aerodrome Forecast
Issued by NWS

Home | Current Version | Previous Version | Text Only | Print | Product List | Glossary On
Versions: 1 2 3 4 5 6 7 8 9 10 11 12 13 14 15 16
000
FTUS43 KICT 250301 AAA
TAFSLN
TAF AMD
KSLN 250301Z 2503/2524 16014G20KT P6SM SCT040
      TEMPO 2503/2506 VRB25G50KT 2SM +TSRA OVC025CB
     FM250800 15013KT P6SM VCTS BKN020CB
     FM251400 17015G22KT P6SM BKN035=

USA.gov is the U.S. government's official web portal to all federal, state and local government web resources and services.